sensor_id;sensor_type;location;lat;lon;timestamp;temperature;humidity
35962;DHT22;22044;48.298;10.008;2023-02-08T00:00:37;-5.80;99.90
35962;DHT22;22044;48.298;10.008;2023-02-08T00:03:24;-5.80;99.90
35962;DHT22;22044;48.298;10.008;2023-02-08T00:06:11;-5.80;99.90
35962;DHT22;22044;48.298;10.008;2023-02-08T00:08:56;-5.80;99.90
35962;DHT22;22044;48.298;10.008;2023-02-08T00:11:42;-5.80;99.90
35962;DHT22;22044;48.298;10.008;2023-02-08T00:14:28;-6.00;99.90
35962;DHT22;22044;48.298;10.008;2023-02-08T00:17:14;-5.90;99.90
35962;DHT22;22044;48.298;10.008;2023-02-08T00:20:01;-5.80;99.90
35962;DHT22;22044;48.298;10.008;2023-02-08T00:22:46;-5.90;99.90
35962;DHT22;22044;48.298;10.008;2023-02-08T00:25:32;-5.80;99.90
35962;DHT22;22044;48.298;10.008;2023-02-08T00:28:18;-5.70;99.90
35962;DHT22;22044;48.298;10.008;2023-02-08T00:31:06;-5.70;99.90
35962;DHT22;22044;48.298;10.008;2023-02-08T00:33:52;-5.70;99.90
35962;DHT22;22044;48.298;10.008;2023-02-08T00:36:38;-5.70;99.90
35962;DHT22;22044;48.298;10.008;2023-02-08T00:39:26;-5.70;99.90
35962;DHT22;22044;48.298;10.008;2023-02-08T00:42:11;-5.70;99.90
35962;DHT22;22044;48.298;10.008;2023-02-08T00:44:57;-5.70;99.90
35962;DHT22;22044;48.298;10.008;2023-02-08T00:47:42;-5.90;99.90
35962;DHT22;22044;48.298;10.008;2023-02-08T00:50:28;-6.10;99.90
35962;DHT22;22044;48.298;10.008;2023-02-08T00:53:15;-6.10;99.90
35962;DHT22;22044;48.298;10.008;2023-02-08T00:56:00;-6.10;99.90
35962;DHT22;22044;48.298;10.008;2023-02-08T00:58:46;-6.00;99.90
35962;DHT22;22044;48.298;10.008;2023-02-08T01:01:32;-5.90;99.90
35962;DHT22;22044;48.298;10.008;2023-02-08T01:04:18;-5.90;99.90
35962;DHT22;22044;48.298;10.008;2023-02-08T01:07:05;-5.90;99.90
35962;DHT22;22044;48.298;10.008;2023-02-08T01:09:52;-5.90;99.90
35962;DHT22;22044;48.298;10.008;2023-02-08T01:12:38;-5.90;99.90
35962;DHT22;22044;48.298;10.008;2023-02-08T01:15:23;-5.90;99.90
35962;DHT22;22044;48.298;10.008;2023-02-08T01:18:09;-6.00;99.90
35962;DHT22;22044;48.298;10.008;2023-02-08T01:20:54;-6.00;99.90
35962;DHT22;22044;48.298;10.008;2023-02-08T01:23:41;-6.00;99.90
35962;DHT22;22044;48.298;10.008;2023-02-08T01:26:28;-6.20;99.90
35962;DHT22;22044;48.298;10.008;2023-02-08T01:29:13;-6.10;99.90
35962;DHT22;22044;48.298;10.008;2023-02-08T01:31:59;-6.20;99.90
35962;DHT22;22044;48.298;10.008;2023-02-08T01:34:46;-6.20;99.90
35962;DHT22;22044;48.298;10.008;2023-02-08T01:37:32;-6.10;99.90
35962;DHT22;22044;48.298;10.008;2023-02-08T01:40:18;-6.20;99.90
35962;DHT22;22044;48.298;10.008;2023-02-08T01:43:18;-6.10;99.90
35962;DHT22;22044;48.298;10.008;2023-02-08T01:46:04;-6.10;99.90
35962;DHT22;22044;48.298;10.008;2023-02-08T01:48:50;-6.20;99.90
35962;DHT22;22044;48.298;10.008;2023-02-08T01:51:39;-6.20;99.90
35962;DHT22;22044;48.298;10.008;2023-02-08T01:54:29;-6.30;99.90
35962;DHT22;22044;48.298;10.008;2023-02-08T01:57:17;-6.30;99.90
35962;DHT22;22044;48.298;10.008;2023-02-08T02:00:07;-6.30;99.90
35962;DHT22;22044;48.298;10.008;2023-02-08T02:02:59;-6.30;99.90
35962;DHT22;22044;48.298;10.008;2023-02-08T02:05:50;-6.40;99.90
35962;DHT22;22044;48.298;10.008;2023-02-08T02:08:37;-6.40;99.90
35962;DHT22;22044;48.298;10.008;2023-02-08T02:11:24;-6.40;99.90
35962;DHT22;22044;48.298;10.008;2023-02-08T02:14:11;-6.40;99.90
35962;DHT22;22044;48.298;10.008;2023-02-08T02:17:00;-6.50;99.90
35962;DHT22;22044;48.298;10.008;2023-02-08T02:19:51;-6.50;99.90
35962;DHT22;22044;48.298;10.008;2023-02-08T02:23:01;-6.50;99.90
35962;DHT22;22044;48.298;10.008;2023-02-08T02:26:23;-6.50;99.90
35962;DHT22;22044;48.298;10.008;2023-02-08T02:29:38;-6.50;99.90
35962;DHT22;22044;48.298;10.008;2023-02-08T02:32:40;-6.50;99.90
35962;DHT22;22044;48.298;10.008;2023-02-08T02:35:35;-6.60;99.90
35962;DHT22;22044;48.298;10.008;2023-02-08T02:38:33;-6.50;99.90
35962;DHT22;22044;48.298;10.008;2023-02-08T02:41:27;-6.60;99.90
35962;DHT22;22044;48.298;10.008;2023-02-08T02:44:45;-6.60;99.90
35962;DHT22;22044;48.298;10.008;2023-02-08T02:47:38;-6.60;99.90
35962;DHT22;22044;48.298;10.008;2023-02-08T02:50:30;-6.60;99.90
35962;DHT22;22044;48.298;10.008;2023-02-08T02:53:21;-6.60;99.90
35962;DHT22;22044;48.298;10.008;2023-02-08T02:56:12;-6.70;99.90
35962;DHT22;22044;48.298;10.008;2023-02-08T02:59:03;-6.70;99.90
35962;DHT22;22044;48.298;10.008;2023-02-08T03:01:49;-6.70;99.90
35962;DHT22;22044;48.298;10.008;2023-02-08T03:04:51;-6.70;99.90
35962;DHT22;22044;48.298;10.008;2023-02-08T03:08:00;-6.60;99.90
35962;DHT22;22044;48.298;10.008;2023-02-08T03:11:10;-6.60;99.90
35962;DHT22;22044;48.298;10.008;2023-02-08T03:14:06;-6.70;99.90
35962;DHT22;22044;48.298;10.008;2023-02-08T03:17:02;-6.80;99.90
35962;DHT22;22044;48.298;10.008;2023-02-08T03:20:02;-6.80;99.90
35962;DHT22;22044;48.298;10.008;2023-02-08T03:22:57;-6.80;99.90
35962;DHT22;22044;48.298;10.008;2023-02-08T03:25:49;-6.80;99.90
35962;DHT22;22044;48.298;10.008;2023-02-08T03:28:38;-6.80;99.90
35962;DHT22;22044;48.298;10.008;2023-02-08T03:31:28;-6.90;99.90
35962;DHT22;22044;48.298;10.008;2023-02-08T03:34:21;-6.90;99.90
35962;DHT22;22044;48.298;10.008;2023-02-08T03:37:13;-6.90;99.90
35962;DHT22;22044;48.298;10.008;2023-02-08T03:40:09;-6.80;99.90
35962;DHT22;22044;48.298;10.008;2023-02-08T03:42:58;-6.90;99.90
35962;DHT22;22044;48.298;10.008;2023-02-08T03:45:48;-6.90;99.90
35962;DHT22;22044;48.298;10.008;2023-02-08T03:48:36;-6.90;99.90
35962;DHT22;22044;48.298;10.008;2023-02-08T03:51:23;-7.00;99.90
35962;DHT22;22044;48.298;10.008;2023-02-08T03:54:15;-6.90;99.90
35962;DHT22;22044;48.298;10.008;2023-02-08T03:57:05;-6.90;99.90
35962;DHT22;22044;48.298;10.008;2023-02-08T03:59:55;-7.00;99.90
35962;DHT22;22044;48.298;10.008;2023-02-08T04:02:47;-7.00;99.90
35962;DHT22;22044;48.298;10.008;2023-02-08T04:05:33;-7.00;99.90
35962;DHT22;22044;48.298;10.008;2023-02-08T04:08:19;-7.00;99.90
35962;DHT22;22044;48.298;10.008;2023-02-08T04:11:06;-7.10;99.90
35962;DHT22;22044;48.298;10.008;2023-02-08T04:13:52;-7.10;99.90
35962;DHT22;22044;48.298;10.008;2023-02-08T04:16:37;-7.20;99.90
35962;DHT22;22044;48.298;10.008;2023-02-08T04:19:23;-7.20;99.90
35962;DHT22;22044;48.298;10.008;2023-02-08T04:22:08;-7.10;99.90
35962;DHT22;22044;48.298;10.008;2023-02-08T04:24:54;-7.00;99.90
35962;DHT22;22044;48.298;10.008;2023-02-08T04:27:41;-7.00;99.90
35962;DHT22;22044;48.298;10.008;2023-02-08T04:30:26;-7.10;99.90
35962;DHT22;22044;48.298;10.008;2023-02-08T04:33:12;-7.10;99.90
35962;DHT22;22044;48.298;10.008;2023-02-08T04:35:58;-7.10;99.90
35962;DHT22;22044;48.298;10.008;2023-02-08T04:38:43;-7.10;99.90
35962;DHT22;22044;48.298;10.008;2023-02-08T04:41:29;-7.10;99.90
35962;DHT22;22044;48.298;10.008;2023-02-08T04:44:16;-7.00;99.90
35962;DHT22;22044;48.298;10.008;2023-02-08T04:47:01;-7.10;99.90
35962;DHT22;22044;48.298;10.008;2023-02-08T04:49:47;-7.30;99.90
35962;DHT22;22044;48.298;10.008;2023-02-08T04:52:33;-7.20;99.90
35962;DHT22;22044;48.298;10.008;2023-02-08T04:55:19;-7.30;99.90
35962;DHT22;22044;48.298;10.008;2023-02-08T04:58:04;-7.20;99.90
35962;DHT22;22044;48.298;10.008;2023-02-08T05:00:51;-7.20;99.90
35962;DHT22;22044;48.298;10.008;2023-02-08T05:03:36;-7.20;99.90
35962;DHT22;22044;48.298;10.008;2023-02-08T05:06:22;-7.20;99.90
35962;DHT22;22044;48.298;10.008;2023-02-08T05:09:08;-7.10;99.90
35962;DHT22;22044;48.298;10.008;2023-02-08T05:11:57;-7.20;99.90
35962;DHT22;22044;48.298;10.008;2023-02-08T05:14:42;-7.10;99.90
35962;DHT22;22044;48.298;10.008;2023-02-08T05:17:31;-7.10;99.90
35962;DHT22;22044;48.298;10.008;2023-02-08T05:20:17;-7.10;99.90
35962;DHT22;22044;48.298;10.008;2023-02-08T05:23:02;-7.10;99.90
35962;DHT22;22044;48.298;10.008;2023-02-08T05:25:49;-7.00;99.90
35962;DHT22;22044;48.298;10.008;2023-02-08T05:28:35;-7.00;99.90
35962;DHT22;22044;48.298;10.008;2023-02-08T05:31:24;-7.00;99.90
35962;DHT22;22044;48.298;10.008;2023-02-08T05:34:11;-7.10;99.90
35962;DHT22;22044;48.298;10.008;2023-02-08T05:36:56;-7.00;99.90
35962;DHT22;22044;48.298;10.008;2023-02-08T05:39:42;-7.00;99.90
35962;DHT22;22044;48.298;10.008;2023-02-08T05:42:28;-7.00;99.90
35962;DHT22;22044;48.298;10.008;2023-02-08T05:45:14;-7.00;99.90
35962;DHT22;22044;48.298;10.008;2023-02-08T05:47:59;-7.10;99.90
35962;DHT22;22044;48.298;10.008;2023-02-08T05:50:46;-7.00;99.90
35962;DHT22;22044;48.298;10.008;2023-02-08T05:53:32;-7.10;99.90
35962;DHT22;22044;48.298;10.008;2023-02-08T05:56:17;-7.10;99.90
35962;DHT22;22044;48.298;10.008;2023-02-08T05:59:03;-7.20;99.90
35962;DHT22;22044;48.298;10.008;2023-02-08T06:01:49;-7.20;99.90
35962;DHT22;22044;48.298;10.008;2023-02-08T06:04:34;-7.20;99.90
35962;DHT22;22044;48.298;10.008;2023-02-08T06:07:21;-7.30;99.90
35962;DHT22;22044;48.298;10.008;2023-02-08T06:10:07;-7.20;99.90
35962;DHT22;22044;48.298;10.008;2023-02-08T06:12:56;-7.20;99.90
35962;DHT22;22044;48.298;10.008;2023-02-08T06:15:41;-7.20;99.90
35962;DHT22;22044;48.298;10.008;2023-02-08T06:18:27;-7.20;99.90
35962;DHT22;22044;48.298;10.008;2023-02-08T06:21:13;-7.30;99.90
35962;DHT22;22044;48.298;10.008;2023-02-08T06:24:00;-7.30;99.90
35962;DHT22;22044;48.298;10.008;2023-02-08T06:26:47;-7.30;99.90
35962;DHT22;22044;48.298;10.008;2023-02-08T06:29:32;-7.30;99.90
35962;DHT22;22044;48.298;10.008;2023-02-08T06:32:18;-7.30;99.90
35962;DHT22;22044;48.298;10.008;2023-02-08T06:35:04;-7.30;99.90
35962;DHT22;22044;48.298;10.008;2023-02-08T06:37:50;-7.30;99.90
35962;DHT22;22044;48.298;10.008;2023-02-08T06:40:37;-7.30;99.90
35962;DHT22;22044;48.298;10.008;2023-02-08T06:43:22;-7.40;99.90
35962;DHT22;22044;48.298;10.008;2023-02-08T06:46:08;-7.40;99.90
35962;DHT22;22044;48.298;10.008;2023-02-08T06:48:54;-7.40;99.90
35962;DHT22;22044;48.298;10.008;2023-02-08T06:51:40;-7.30;99.90
35962;DHT22;22044;48.298;10.008;2023-02-08T06:54:26;-7.30;99.90
35962;DHT22;22044;48.298;10.008;2023-02-08T06:57:13;-7.30;99.90
35962;DHT22;22044;48.298;10.008;2023-02-08T06:59:58;-7.20;99.90
35962;DHT22;22044;48.298;10.008;2023-02-08T07:02:44;-7.10;99.90
35962;DHT22;22044;48.298;10.008;2023-02-08T07:05:33;-7.10;99.90
35962;DHT22;22044;48.298;10.008;2023-02-08T07:08:18;-7.00;99.90
35962;DHT22;22044;48.298;10.008;2023-02-08T07:11:08;-6.80;99.90
35962;DHT22;22044;48.298;10.008;2023-02-08T07:13:55;-6.70;99.90
35962;DHT22;22044;48.298;10.008;2023-02-08T07:16:40;-6.50;99.90
35962;DHT22;22044;48.298;10.008;2023-02-08T07:19:27;-6.30;99.90
35962;DHT22;22044;48.298;10.008;2023-02-08T07:22:12;-5.90;99.90
35962;DHT22;22044;48.298;10.008;2023-02-08T07:24:58;-5.50;99.90
35962;DHT22;22044;48.298;10.008;2023-02-08T07:27:43;-4.80;99.90
35962;DHT22;22044;48.298;10.008;2023-02-08T07:30:30;-4.10;99.90
35962;DHT22;22044;48.298;10.008;2023-02-08T07:33:16;-3.70;99.90
35962;DHT22;22044;48.298;10.008;2023-02-08T07:36:03;-3.40;99.90
35962;DHT22;22044;48.298;10.008;2023-02-08T07:38:48;-2.90;99.90
35962;DHT22;22044;48.298;10.008;2023-02-08T07:41:34;-3.20;99.90
35962;DHT22;22044;48.298;10.008;2023-02-08T07:44:19;-3.20;99.90
35962;DHT22;22044;48.298;10.008;2023-02-08T07:47:06;-2.70;99.90
35962;DHT22;22044;48.298;10.008;2023-02-08T07:49:52;-3.10;99.90
35962;DHT22;22044;48.298;10.008;2023-02-08T07:52:37;-3.70;99.90
35962;DHT22;22044;48.298;10.008;2023-02-08T07:55:26;-3.80;99.90
35962;DHT22;22044;48.298;10.008;2023-02-08T07:58:12;-3.80;99.90
35962;DHT22;22044;48.298;10.008;2023-02-08T08:00:58;-3.30;99.90
35962;DHT22;22044;48.298;10.008;2023-02-08T08:03:45;-3.80;99.90
35962;DHT22;22044;48.298;10.008;2023-02-08T08:06:31;-3.70;99.90
35962;DHT22;22044;48.298;10.008;2023-02-08T08:09:17;-3.80;99.90
35962;DHT22;22044;48.298;10.008;2023-02-08T08:12:03;-4.20;99.90
35962;DHT22;22044;48.298;10.008;2023-02-08T08:14:49;-4.20;99.90
35962;DHT22;22044;48.298;10.008;2023-02-08T08:17:35;-4.60;99.90
35962;DHT22;22044;48.298;10.008;2023-02-08T08:20:24;-5.00;99.90
35962;DHT22;22044;48.298;10.008;2023-02-08T08:23:09;-4.90;99.90
35962;DHT22;22044;48.298;10.008;2023-02-08T08:25:55;-5.00;99.90
35962;DHT22;22044;48.298;10.008;2023-02-08T08:28:41;-4.70;99.90
35962;DHT22;22044;48.298;10.008;2023-02-08T08:31:26;-4.30;99.90
35962;DHT22;22044;48.298;10.008;2023-02-08T08:34:13;-4.30;99.90
35962;DHT22;22044;48.298;10.008;2023-02-08T08:37:01;-3.90;99.90
35962;DHT22;22044;48.298;10.008;2023-02-08T08:39:47;-3.60;99.90
35962;DHT22;22044;48.298;10.008;2023-02-08T08:42:33;-3.00;99.90
35962;DHT22;22044;48.298;10.008;2023-02-08T08:45:19;-2.40;99.90
35962;DHT22;22044;48.298;10.008;2023-02-08T08:48:06;-2.10;99.90
35962;DHT22;22044;48.298;10.008;2023-02-08T08:50:54;-1.10;99.90
35962;DHT22;22044;48.298;10.008;2023-02-08T08:53:41;-0.50;99.90
35962;DHT22;22044;48.298;10.008;2023-02-08T08:56:27;0.20;99.90
35962;DHT22;22044;48.298;10.008;2023-02-08T08:59:13;0.70;99.90
35962;DHT22;22044;48.298;10.008;2023-02-08T09:39:26;1.70;99.90
35962;DHT22;22044;48.298;10.008;2023-02-08T09:42:21;-0.20;99.90
35962;DHT22;22044;48.298;10.008;2023-02-08T09:45:24;-0.80;99.90
35962;DHT22;22044;48.298;10.008;2023-02-08T09:48:19;-0.60;99.90
35962;DHT22;22044;48.298;10.008;2023-02-08T09:51:09;-0.80;99.90
35962;DHT22;22044;48.298;10.008;2023-02-08T09:54:01;-0.70;99.90
35962;DHT22;22044;48.298;10.008;2023-02-08T09:56:49;-1.30;99.90
35962;DHT22;22044;48.298;10.008;2023-02-08T09:59:38;-1.40;99.90
35962;DHT22;22044;48.298;10.008;2023-02-08T10:02:27;-1.60;99.90
35962;DHT22;22044;48.298;10.008;2023-02-08T10:05:15;-1.30;99.90
35962;DHT22;22044;48.298;10.008;2023-02-08T10:08:07;-1.50;99.90
35962;DHT22;22044;48.298;10.008;2023-02-08T10:10:55;-1.20;99.90
35962;DHT22;22044;48.298;10.008;2023-02-08T10:14:00;-1.20;99.90
35962;DHT22;22044;48.298;10.008;2023-02-08T10:16:58;-1.30;99.90
35962;DHT22;22044;48.298;10.008;2023-02-08T10:19:55;-1.10;99.90
35962;DHT22;22044;48.298;10.008;2023-02-08T10:22:50;-1.10;99.90
35962;DHT22;22044;48.298;10.008;2023-02-08T10:25:46;-0.90;99.90
35962;DHT22;22044;48.298;10.008;2023-02-08T10:28:59;-1.30;99.90
35962;DHT22;22044;48.298;10.008;2023-02-08T10:32:01;-0.90;99.90
35962;DHT22;22044;48.298;10.008;2023-02-08T10:34:53;-0.90;99.90
35962;DHT22;22044;48.298;10.008;2023-02-08T10:37:42;-0.90;99.90
35962;DHT22;22044;48.298;10.008;2023-02-08T10:40:33;-1.10;99.90
35962;DHT22;22044;48.298;10.008;2023-02-08T10:43:25;-1.00;99.90
35962;DHT22;22044;48.298;10.008;2023-02-08T10:46:19;-1.10;99.90
35962;DHT22;22044;48.298;10.008;2023-02-08T10:49:10;-0.90;99.90
35962;DHT22;22044;48.298;10.008;2023-02-08T10:51:56;-0.90;99.90
35962;DHT22;22044;48.298;10.008;2023-02-08T10:54:42;-0.70;99.90
35962;DHT22;22044;48.298;10.008;2023-02-08T10:57:31;-0.90;99.90
35962;DHT22;22044;48.298;10.008;2023-02-08T11:00:20;-0.80;99.90
35962;DHT22;22044;48.298;10.008;2023-02-08T11:03:15;-0.80;99.90
35962;DHT22;22044;48.298;10.008;2023-02-08T11:06:01;-0.70;99.90
35962;DHT22;22044;48.298;10.008;2023-02-08T11:08:54;-0.50;99.90
35962;DHT22;22044;48.298;10.008;2023-02-08T11:11:40;-0.50;99.90
35962;DHT22;22044;48.298;10.008;2023-02-08T11:14:33;-0.50;99.90
35962;DHT22;22044;48.298;10.008;2023-02-08T11:17:25;-0.40;99.90
35962;DHT22;22044;48.298;10.008;2023-02-08T11:20:30;-0.40;99.90
35962;DHT22;22044;48.298;10.008;2023-02-08T11:23:21;-0.40;99.90
35962;DHT22;22044;48.298;10.008;2023-02-08T11:26:16;-0.50;99.90
35962;DHT22;22044;48.298;10.008;2023-02-08T11:29:04;-0.30;99.90
35962;DHT22;22044;48.298;10.008;2023-02-08T11:32:00;-0.30;99.90
35962;DHT22;22044;48.298;10.008;2023-02-08T11:34:46;-0.40;99.90
35962;DHT22;22044;48.298;10.008;2023-02-08T11:37:33;-0.30;99.90
35962;DHT22;22044;48.298;10.008;2023-02-08T11:40:21;-0.20;99.90
35962;DHT22;22044;48.298;10.008;2023-02-08T11:43:19;0.00;99.90
35962;DHT22;22044;48.298;10.008;2023-02-08T11:46:05;0.10;99.90
35962;DHT22;22044;48.298;10.008;2023-02-08T11:48:51;0.20;99.90
35962;DHT22;22044;48.298;10.008;2023-02-08T11:51:38;0.40;99.90
35962;DHT22;22044;48.298;10.008;2023-02-08T11:54:39;0.10;99.90
35962;DHT22;22044;48.298;10.008;2023-02-08T11:57:26;0.10;99.90
35962;DHT22;22044;48.298;10.008;2023-02-08T12:00:17;0.00;99.90
35962;DHT22;22044;48.298;10.008;2023-02-08T12:03:04;0.00;99.90
35962;DHT22;22044;48.298;10.008;2023-02-08T12:06:01;0.00;99.90
35962;DHT22;22044;48.298;10.008;2023-02-08T12:08:57;0.00;99.90
35962;DHT22;22044;48.298;10.008;2023-02-08T12:11:49;0.00;99.90
35962;DHT22;22044;48.298;10.008;2023-02-08T12:14:45;0.00;99.90
35962;DHT22;22044;48.298;10.008;2023-02-08T12:20:58;-0.10;99.90
35962;DHT22;22044;48.298;10.008;2023-02-08T12:23:52;-0.30;99.90
35962;DHT22;22044;48.298;10.008;2023-02-08T12:26:51;-0.10;99.90
35962;DHT22;22044;48.298;10.008;2023-02-08T12:29:42;-0.20;99.90
35962;DHT22;22044;48.298;10.008;2023-02-08T12:32:42;-0.20;99.90
35962;DHT22;22044;48.298;10.008;2023-02-08T12:38:11;-0.10;99.90
35962;DHT22;22044;48.298;10.008;2023-02-08T12:41:22;-0.30;99.90
35962;DHT22;22044;48.298;10.008;2023-02-08T12:44:21;-0.20;99.90
35962;DHT22;22044;48.298;10.008;2023-02-08T12:47:25;-0.20;99.90
35962;DHT22;22044;48.298;10.008;2023-02-08T12:50:24;-0.20;99.90
35962;DHT22;22044;48.298;10.008;2023-02-08T12:53:20;-0.30;99.90
35962;DHT22;22044;48.298;10.008;2023-02-08T12:56:13;-0.20;99.90
35962;DHT22;22044;48.298;10.008;2023-02-08T12:59:01;-0.30;99.90
35962;DHT22;22044;48.298;10.008;2023-02-08T13:01:52;-0.40;99.90
35962;DHT22;22044;48.298;10.008;2023-02-08T13:04:44;-0.20;99.90
35962;DHT22;22044;48.298;10.008;2023-02-08T13:07:33;-0.30;99.90
35962;DHT22;22044;48.298;10.008;2023-02-08T13:10:24;-0.30;99.90
35962;DHT22;22044;48.298;10.008;2023-02-08T13:13:15;-0.30;99.90
35962;DHT22;22044;48.298;10.008;2023-02-08T13:16:06;-0.30;99.90
35962;DHT22;22044;48.298;10.008;2023-02-08T13:19:00;-0.20;99.90
35962;DHT22;22044;48.298;10.008;2023-02-08T13:21:50;-0.20;99.90
35962;DHT22;22044;48.298;10.008;2023-02-08T13:24:38;-0.20;99.90
35962;DHT22;22044;48.298;10.008;2023-02-08T13:27:24;-0.30;99.90
35962;DHT22;22044;48.298;10.008;2023-02-08T13:30:16;-0.30;99.90
35962;DHT22;22044;48.298;10.008;2023-02-08T13:33:10;-0.30;99.90
35962;DHT22;22044;48.298;10.008;2023-02-08T13:35:59;-0.30;99.90
35962;DHT22;22044;48.298;10.008;2023-02-08T13:38:47;-0.30;99.90
35962;DHT22;22044;48.298;10.008;2023-02-08T13:41:34;-0.30;99.90
35962;DHT22;22044;48.298;10.008;2023-02-08T13:44:27;-0.30;99.90
35962;DHT22;22044;48.298;10.008;2023-02-08T13:47:22;-0.30;99.90
35962;DHT22;22044;48.298;10.008;2023-02-08T13:50:43;-0.40;99.90
35962;DHT22;22044;48.298;10.008;2023-02-08T13:54:10;-0.40;99.90
35962;DHT22;22044;48.298;10.008;2023-02-08T13:56:56;-0.40;99.90
35962;DHT22;22044;48.298;10.008;2023-02-08T13:59:41;-0.40;99.90
35962;DHT22;22044;48.298;10.008;2023-02-08T14:02:32;-0.40;99.90
35962;DHT22;22044;48.298;10.008;2023-02-08T14:05:42;-0.40;99.90
35962;DHT22;22044;48.298;10.008;2023-02-08T14:08:33;-0.40;99.90
35962;DHT22;22044;48.298;10.008;2023-02-08T14:11:31;-0.40;99.90
35962;DHT22;22044;48.298;10.008;2023-02-08T14:14:23;-0.30;99.90
35962;DHT22;22044;48.298;10.008;2023-02-08T14:17:19;-0.40;99.90
35962;DHT22;22044;48.298;10.008;2023-02-08T14:20:06;-0.40;99.90
35962;DHT22;22044;48.298;10.008;2023-02-08T14:22:53;-0.40;99.90
35962;DHT22;22044;48.298;10.008;2023-02-08T14:25:42;-0.40;99.90
35962;DHT22;22044;48.298;10.008;2023-02-08T14:28:33;-0.40;99.90
35962;DHT22;22044;48.298;10.008;2023-02-08T14:31:19;-0.40;99.90
35962;DHT22;22044;48.298;10.008;2023-02-08T14:34:21;-0.30;99.90
35962;DHT22;22044;48.298;10.008;2023-02-08T14:37:26;-0.40;99.90
35962;DHT22;22044;48.298;10.008;2023-02-08T14:40:48;-0.40;99.90
35962;DHT22;22044;48.298;10.008;2023-02-08T14:43:37;-0.40;99.90
35962;DHT22;22044;48.298;10.008;2023-02-08T14:46:43;-0.40;99.90
35962;DHT22;22044;48.298;10.008;2023-02-08T14:49:41;-0.50;99.90
35962;DHT22;22044;48.298;10.008;2023-02-08T14:52:27;-0.40;99.90
35962;DHT22;22044;48.298;10.008;2023-02-08T14:55:16;-0.40;99.90
35962;DHT22;22044;48.298;10.008;2023-02-08T14:58:04;-0.50;99.90
35962;DHT22;22044;48.298;10.008;2023-02-08T15:00:54;-0.50;99.90
35962;DHT22;22044;48.298;10.008;2023-02-08T15:03:41;-0.50;99.90
35962;DHT22;22044;48.298;10.008;2023-02-08T15:09:46;-0.50;99.90
35962;DHT22;22044;48.298;10.008;2023-02-08T15:12:34;-0.60;99.90
35962;DHT22;22044;48.298;10.008;2023-02-08T15:15:25;-0.60;99.90
35962;DHT22;22044;48.298;10.008;2023-02-08T15:18:18;-0.60;99.90
35962;DHT22;22044;48.298;10.008;2023-02-08T15:21:12;-0.60;99.90
35962;DHT22;22044;48.298;10.008;2023-02-08T15:24:01;-0.60;99.90
35962;DHT22;22044;48.298;10.008;2023-02-08T15:26:49;-0.60;99.90
35962;DHT22;22044;48.298;10.008;2023-02-08T15:29:40;-0.60;99.90
35962;DHT22;22044;48.298;10.008;2023-02-08T15:32:28;-0.70;99.90
35962;DHT22;22044;48.298;10.008;2023-02-08T15:35:19;-0.70;99.90
35962;DHT22;22044;48.298;10.008;2023-02-08T15:38:14;-0.70;99.90
35962;DHT22;22044;48.298;10.008;2023-02-08T15:41:03;-0.80;99.90
35962;DHT22;22044;48.298;10.008;2023-02-08T15:43:50;-0.90;99.90
35962;DHT22;22044;48.298;10.008;2023-02-08T15:46:36;-1.00;99.90
35962;DHT22;22044;48.298;10.008;2023-02-08T15:49:27;-1.00;99.90
35962;DHT22;22044;48.298;10.008;2023-02-08T15:52:17;-1.10;99.90
35962;DHT22;22044;48.298;10.008;2023-02-08T15:55:05;-1.10;99.90
35962;DHT22;22044;48.298;10.008;2023-02-08T15:57:55;-1.20;99.90
35962;DHT22;22044;48.298;10.008;2023-02-08T16:00:44;-1.10;99.90
35962;DHT22;22044;48.298;10.008;2023-02-08T16:03:30;-1.30;99.90
35962;DHT22;22044;48.298;10.008;2023-02-08T16:06:21;-1.30;99.90
35962;DHT22;22044;48.298;10.008;2023-02-08T16:09:17;-1.30;99.90
35962;DHT22;22044;48.298;10.008;2023-02-08T16:12:03;-1.30;99.90
35962;DHT22;22044;48.298;10.008;2023-02-08T16:14:49;-1.50;99.90
35962;DHT22;22044;48.298;10.008;2023-02-08T16:17:37;-1.50;99.90
35962;DHT22;22044;48.298;10.008;2023-02-08T16:20:27;-1.50;99.90
35962;DHT22;22044;48.298;10.008;2023-02-08T16:23:23;-1.60;99.90
35962;DHT22;22044;48.298;10.008;2023-02-08T16:26:17;-1.70;99.90
35962;DHT22;22044;48.298;10.008;2023-02-08T16:29:05;-1.80;99.90
35962;DHT22;22044;48.298;10.008;2023-02-08T16:31:57;-1.80;99.90
35962;DHT22;22044;48.298;10.008;2023-02-08T16:34:47;-1.80;99.90
35962;DHT22;22044;48.298;10.008;2023-02-08T16:37:34;-1.90;99.90
35962;DHT22;22044;48.298;10.008;2023-02-08T16:40:44;-1.90;99.90
35962;DHT22;22044;48.298;10.008;2023-02-08T16:43:36;-1.90;99.90
35962;DHT22;22044;48.298;10.008;2023-02-08T16:46:23;-1.90;99.90
35962;DHT22;22044;48.298;10.008;2023-02-08T16:49:10;-2.00;99.90
35962;DHT22;22044;48.298;10.008;2023-02-08T16:51:57;-2.00;99.90
35962;DHT22;22044;48.298;10.008;2023-02-08T16:54:43;-2.10;99.90
35962;DHT22;22044;48.298;10.008;2023-02-08T16:57:40;-2.10;99.90
35962;DHT22;22044;48.298;10.008;2023-02-08T17:00:28;-2.20;99.90
35962;DHT22;22044;48.298;10.008;2023-02-08T17:03:14;-2.30;99.90
35962;DHT22;22044;48.298;10.008;2023-02-08T17:06:00;-2.30;99.90
35962;DHT22;22044;48.298;10.008;2023-02-08T17:08:45;-2.30;99.90
35962;DHT22;22044;48.298;10.008;2023-02-08T17:11:33;-2.30;99.90
35962;DHT22;22044;48.298;10.008;2023-02-08T17:14:19;-2.30;99.90
35962;DHT22;22044;48.298;10.008;2023-02-08T17:17:06;-2.20;99.90
35962;DHT22;22044;48.298;10.008;2023-02-08T17:19:51;-2.20;99.90
35962;DHT22;22044;48.298;10.008;2023-02-08T17:22:37;-2.20;99.90
35962;DHT22;22044;48.298;10.008;2023-02-08T17:25:25;-2.40;99.90
35962;DHT22;22044;48.298;10.008;2023-02-08T17:28:15;-2.40;99.90
35962;DHT22;22044;48.298;10.008;2023-02-08T17:31:01;-2.60;99.90
35962;DHT22;22044;48.298;10.008;2023-02-08T17:33:48;-2.70;99.90
35962;DHT22;22044;48.298;10.008;2023-02-08T17:36:35;-2.70;99.90
35962;DHT22;22044;48.298;10.008;2023-02-08T17:39:21;-2.60;99.90
35962;DHT22;22044;48.298;10.008;2023-02-08T17:42:07;-2.60;99.90
35962;DHT22;22044;48.298;10.008;2023-02-08T17:44:55;-2.60;99.90
35962;DHT22;22044;48.298;10.008;2023-02-08T17:47:40;-2.70;99.90
35962;DHT22;22044;48.298;10.008;2023-02-08T17:50:27;-2.80;99.90
35962;DHT22;22044;48.298;10.008;2023-02-08T17:53:13;-2.80;99.90
35962;DHT22;22044;48.298;10.008;2023-02-08T17:55:59;-2.80;99.90
35962;DHT22;22044;48.298;10.008;2023-02-08T17:58:44;-2.80;99.90
35962;DHT22;22044;48.298;10.008;2023-02-08T18:01:30;-2.80;99.90
35962;DHT22;22044;48.298;10.008;2023-02-08T18:04:16;-2.80;99.90
35962;DHT22;22044;48.298;10.008;2023-02-08T18:07:03;-2.90;99.90
35962;DHT22;22044;48.298;10.008;2023-02-08T18:09:49;-2.80;99.90
35962;DHT22;22044;48.298;10.008;2023-02-08T18:12:34;-2.90;99.90
35962;DHT22;22044;48.298;10.008;2023-02-08T18:15:21;-3.00;99.90
35962;DHT22;22044;48.298;10.008;2023-02-08T18:18:06;-3.10;99.90
35962;DHT22;22044;48.298;10.008;2023-02-08T18:20:55;-3.10;99.90
35962;DHT22;22044;48.298;10.008;2023-02-08T18:23:42;-3.10;99.90